Time;durP1;ratioP1;P1;durP2;ratioP2;P2;SDS_P1;SDS_P2;PMS_P1;PMS_P2;Temp;Humidity;BMP_temperature;BMP_pressure;BME280_temperature;BME280_humidity;BME280_pressure;Samples;Min_cycle;Max_cycle;Signal;HPM_P1;HPM_P2
2021/08/11 00:01:01;;;;;;;11.22;6.62;;;;;;;18.07;74.21;97818.31;1769037;80;21385;-81
2021/08/11 00:03:27;;;;;;;7.75;6.12;;;;;;;18.03;74.62;97807.86;1791209;79;21033;-82
2021/08/11 00:05:54;;;;;;;8.60;6.22;;;;;;;17.98;74.82;97809.98;1790441;80;21037;-81
2021/08/11 00:08:20;;;;;;;7.50;6.00;;;;;;;17.94;75.19;97814.67;1790502;80;20966;-81
2021/08/11 00:10:48;;;;;;;10.95;6.50;;;;;;;17.89;75.02;97803.38;1790487;80;20994;-81
2021/08/11 00:13:14;;;;;;;8.63;6.33;;;;;;;17.82;75.46;97809.60;1790438;80;21033;-81
2021/08/11 00:15:40;;;;;;;6.70;6.00;;;;;;;17.78;74.86;97811.59;1790454;80;20990;-81
2021/08/11 00:18:07;;;;;;;7.72;5.75;;;;;;;17.73;75.01;97808.34;1790457;80;20993;-82
2021/08/11 00:20:35;;;;;;;9.45;6.60;;;;;;;17.71;75.59;97806.24;1790497;80;20955;-81
2021/08/11 00:23:02;;;;;;;6.83;6.03;;;;;;;17.68;75.26;97807.76;1820808;79;20982;-80
2021/08/11 00:25:29;;;;;;;6.92;6.22;;;;;;;17.65;75.29;97810.65;1824379;79;20997;-81
2021/08/11 00:27:56;;;;;;;7.28;6.05;;;;;;;17.58;75.70;97811.97;1824392;79;21057;-80
2021/08/11 00:30:22;;;;;;;7.62;6.67;;;;;;;17.53;76.00;97807.75;1824540;79;20985;-81
2021/08/11 00:32:49;;;;;;;9.40;6.42;;;;;;;17.50;75.45;97801.25;1824357;79;20990;-81
2021/08/11 00:35:15;;;;;;;15.35;6.45;;;;;;;17.49;75.80;97809.38;1824412;79;21001;-80
2021/08/11 00:37:42;;;;;;;9.13;6.78;;;;;;;17.45;75.38;97798.46;1824420;79;20955;-81
2021/08/11 00:40:13;;;;;;;10.40;6.25;;;;;;;17.45;75.42;97797.13;1824340;79;20938;-81
2021/08/11 00:42:41;;;;;;;9.35;6.50;;;;;;;17.44;75.94;97796.75;1824367;79;21021;-81
2021/08/11 00:45:09;;;;;;;7.78;6.97;;;;;;;17.37;76.97;97799.80;1823582;79;21006;-81
2021/08/11 00:47:36;;;;;;;9.05;6.55;;;;;;;17.35;76.40;97804.88;1819511;79;20982;-81
2021/08/11 00:50:06;;;;;;;8.00;6.60;;;;;;;17.33;76.44;97800.06;1819536;79;21016;-80
2021/08/11 00:52:34;;;;;;;6.70;6.00;;;;;;;17.31;76.42;97797.47;1791476;79;20943;-81
2021/08/11 00:55:03;;;;;;;8.30;6.12;;;;;;;17.31;76.44;97798.81;1763042;80;21032;-81
2021/08/11 00:57:32;;;;;;;8.05;6.33;;;;;;;17.34;76.64;97801.78;1747938;82;21008;-81
2021/08/11 01:00:00;;;;;;;7.85;5.80;;;;;;;17.37;77.08;97797.13;1719253;82;20973;-81
2021/08/11 01:02:28;;;;;;;6.40;5.80;;;;;;;17.39;76.80;97790.31;1754999;82;21458;-80
2021/08/11 01:04:59;;;;;;;6.80;5.45;;;;;;;17.39;76.63;97796.55;1785731;80;20992;-81
2021/08/11 01:07:29;;;;;;;7.28;5.35;;;;;;;17.40;76.52;97793.40;1785871;80;20986;-81
2021/08/11 01:09:56;;;;;;;7.78;5.72;;;;;;;17.36;77.04;97786.00;1785827;80;21416;-81
2021/08/11 01:12:26;;;;;;;7.90;5.80;;;;;;;17.36;76.66;97790.02;1785833;80;21447;-80
2021/08/11 01:14:54;;;;;;;7.70;5.53;;;;;;;17.38;76.58;97788.13;1785834;80;21010;-80
2021/08/11 01:17:27;;;;;;;7.42;5.67;;;;;;;17.39;76.66;97790.31;1762090;80;21424;-80
2021/08/11 01:19:59;;;;;;;7.05;5.97;;;;;;;17.38;76.48;97787.25;1785963;80;21006;-81
2021/08/11 01:22:40;;;;;;;6.33;5.58;;;;;;;17.38;76.50;97780.56;1787919;79;20952;-81
2021/08/11 01:25:30;;;;;;;6.72;5.70;;;;;;;17.33;76.61;97786.67;1747865;81;20976;-80
2021/08/11 01:28:27;;;;;;;7.15;5.97;;;;;;;17.28;76.84;97782.45;1725190;82;21005;-80
2021/08/11 01:31:11;;;;;;;7.58;5.70;;;;;;;17.25;76.22;97780.45;1781338;79;20997;-81
2021/08/11 01:33:51;;;;;;;9.60;6.30;;;;;;;17.20;76.40;97787.44;1767377;81;20972;-81
2021/08/11 01:36:52;;;;;;;8.18;5.90;;;;;;;17.20;75.77;97781.20;1787568;80;20983;-80
2021/08/11 01:39:41;;;;;;;9.13;5.65;;;;;;;17.18;75.75;97783.13;1787162;80;20945;-81
2021/08/11 01:42:33;;;;;;;6.75;6.00;;;;;;;17.12;75.49;97780.33;1766860;81;21044;-81
2021/08/11 01:45:16;;;;;;;9.85;6.62;;;;;;;17.07;75.51;97777.91;1785957;80;21012;-81
2021/08/11 01:47:55;;;;;;;8.13;6.12;;;;;;;17.02;75.96;97783.52;1787499;79;20960;-81
2021/08/11 01:50:25;;;;;;;8.23;5.87;;;;;;;16.99;76.56;97786.86;1767200;81;21078;-81
2021/08/11 01:52:54;;;;;;;9.65;5.83;;;;;;;16.93;77.47;97783.22;1817161;79;21483;-81
2021/08/11 01:55:21;;;;;;;6.80;6.08;;;;;;;16.89;76.92;97778.03;1798674;80;21000;-81
2021/08/11 01:57:53;;;;;;;8.55;5.87;;;;;;;16.89;76.67;97779.84;1819597;78;21027;-81
2021/08/11 02:00:23;;;;;;;8.20;5.65;;;;;;;16.83;76.83;97779.74;1818895;79;20976;-81
2021/08/11 02:02:51;;;;;;;6.60;5.90;;;;;;;16.82;76.60;97782.01;1819743;78;21000;-81
2021/08/11 02:05:28;;;;;;;10.05;6.28;;;;;;;16.75;77.81;97778.86;1819596;79;21017;-81
2021/08/11 02:07:54;;;;;;;7.97;5.67;;;;;;;16.72;76.63;97777.69;1819733;79;21000;-81
2021/08/11 02:10:21;;;;;;;7.53;6.10;;;;;;;16.70;77.26;97777.39;1819859;78;21052;-81
2021/08/11 02:12:49;;;;;;;10.90;6.70;;;;;;;16.69;76.64;97785.88;1819841;79;20989;-81
2021/08/11 02:15:16;;;;;;;9.05;6.72;;;;;;;16.70;76.81;97789.43;1819627;79;20991;-80
2021/08/11 02:17:43;;;;;;;7.50;6.37;;;;;;;16.62;78.37;97789.38;1819782;78;21003;-81
2021/08/11 02:20:12;;;;;;;7.35;6.17;;;;;;;16.59;77.42;97784.23;1819758;78;20964;-81
2021/08/11 02:22:38;;;;;;;10.90;6.33;;;;;;;16.57;78.04;97790.63;1793659;79;21011;-80
2021/08/11 02:25:09;;;;;;;9.40;5.87;;;;;;;16.53;78.26;97797.94;1763324;80;21382;-80
2021/08/11 02:27:51;;;;;;;7.00;5.47;;;;;;;16.53;78.15;97793.92;1787635;80;20949;-80
2021/08/11 02:30:29;;;;;;;7.87;5.70;;;;;;;16.50;78.24;97800.31;1763405;80;20996;-81
2021/08/11 02:33:00;;;;;;;9.55;5.62;;;;;;;16.54;77.97;97793.45;1787634;80;21378;-81
2021/08/11 02:35:35;;;;;;;8.63;5.92;;;;;;;16.51;78.32;97794.50;1786183;80;21004;-81
2021/08/11 02:38:16;;;;;;;6.62;5.75;;;;;;;16.53;78.85;97797.94;1787538;80;20984;-80
2021/08/11 02:41:19;;;;;;;7.47;5.28;;;;;;;16.52;78.81;97798.05;1787819;80;21013;-81
2021/08/11 02:44:08;;;;;;;7.25;5.10;;;;;;;16.50;78.66;97802.98;1787670;80;20948;-81
2021/08/11 02:46:43;;;;;;;7.08;5.03;;;;;;;16.50;78.19;97802.14;1781733;80;21011;-80
2021/08/11 02:49:12;;;;;;;8.00;5.45;;;;;;;16.43;78.68;97800.75;1775407;81;21503;-81
2021/08/11 02:51:41;;;;;;;7.45;5.65;;;;;;;16.47;78.04;97799.63;1757284;81;20991;-80
2021/08/11 02:54:12;;;;;;;7.22;5.80;;;;;;;16.42;78.00;97802.58;1767589;80;21019;-81
2021/08/11 02:56:44;;;;;;;7.03;5.20;;;;;;;16.38;77.65;97802.83;1743777;82;21035;-81
2021/08/11 02:59:14;;;;;;;8.13;5.80;;;;;;;16.37;77.22;97803.32;1744131;82;21075;-81
2021/08/11 03:01:42;;;;;;;8.38;5.70;;;;;;;16.36;77.36;97797.59;1767395;81;20976;-81
2021/08/11 03:04:09;;;;;;;7.05;5.55;;;;;;;16.34;77.48;97795.45;1743736;82;20967;-81
2021/08/11 03:06:36;;;;;;;11.63;6.10;;;;;;;16.29;77.88;97789.05;1767367;81;21359;-80
2021/08/11 03:09:05;;;;;;;8.25;5.90;;;;;;;16.23;77.96;97787.56;1743858;82;21417;-81
2021/08/11 03:11:35;;;;;;;10.08;5.67;;;;;;;16.16;78.20;97790.67;1767279;81;21020;-80
2021/08/11 03:14:05;;;;;;;8.13;5.83;;;;;;;16.10;78.95;97785.19;1743789;82;21026;-81
2021/08/11 03:16:37;;;;;;;7.42;6.05;;;;;;;16.07;79.25;97786.71;1767326;81;20984;-81
2021/08/11 03:19:05;;;;;;;8.93;5.80;;;;;;;16.05;77.86;97782.78;1767448;81;21024;-81
2021/08/11 03:21:34;;;;;;;6.58;5.58;;;;;;;16.03;78.21;97783.81;1761155;81;20990;-81
2021/08/11 03:24:01;;;;;;;7.30;5.50;;;;;;;16.01;77.90;97777.21;1801387;79;20963;-81
2021/08/11 03:26:29;;;;;;;11.93;5.92;;;;;;;15.99;79.04;97784.47;1776459;81;21018;-80
2021/08/11 03:29:01;;;;;;;10.15;5.75;;;;;;;16.00;78.12;97782.17;1801489;80;20983;-81
2021/08/11 03:31:24;;;;;;;7.87;5.83;;;;;;;16.02;77.98;97784.77;1800588;79;21393;-81
2021/08/11 03:33:50;;;;;;;8.18;6.10;;;;;;;16.02;78.95;97787.44;1776646;80;20971;-81
2021/08/11 03:36:18;;;;;;;9.68;6.03;;;;;;;16.02;78.41;97786.11;1801586;79;20986;-81
2021/08/11 03:38:45;;;;;;;6.97;5.15;;;;;;;16.05;78.18;97793.47;1776477;81;20963;-80
2021/08/11 03:41:11;;;;;;;6.90;5.40;;;;;;;16.08;78.08;97793.78;1801614;79;20935;-80
2021/08/11 03:43:38;;;;;;;11.00;5.78;;;;;;;16.11;78.12;97797.59;1776577;80;21006;-80
2021/08/11 03:46:05;;;;;;;6.55;5.10;;;;;;;16.15;77.94;97793.81;1798585;80;20968;-80
2021/08/11 03:48:31;;;;;;;8.10;4.83;;;;;;;16.14;78.05;97804.13;1787584;80;21003;-80
2021/08/11 03:50:58;;;;;;;7.22;4.62;;;;;;;16.19;77.78;97806.56;1767435;80;21484;-80
2021/08/11 03:53:24;;;;;;;7.03;4.47;;;;;;;16.22;77.58;97813.92;1787680;80;20948;-80
2021/08/11 03:55:51;;;;;;;8.78;5.30;;;;;;;16.29;77.56;97810.90;1767326;81;21043;-80
2021/08/11 03:58:17;;;;;;;7.30;4.65;;;;;;;16.31;77.31;97808.98;1787634;80;21353;-81
2021/08/11 04:00:44;;;;;;;7.15;4.78;;;;;;;16.29;77.27;97814.45;1792164;80;21026;-81
2021/08/11 04:03:11;;;;;;;11.05;5.20;;;;;;;16.30;76.85;97814.83;1787588;80;20967;-81
2021/08/11 04:05:37;;;;;;;7.20;5.08;;;;;;;16.25;76.62;97812.02;1787623;80;21418;-81
2021/08/11 04:08:04;;;;;;;8.53;5.10;;;;;;;16.23;76.34;97814.77;1767363;81;21007;-81
2021/08/11 04:10:30;;;;;;;9.05;5.47;;;;;;;16.19;76.24;97810.08;1787890;80;21015;-81
2021/08/11 04:12:56;;;;;;;13.32;5.80;;;;;;;16.17;76.43;97806.63;1788538;80;20999;-81
2021/08/11 04:15:23;;;;;;;8.28;5.05;;;;;;;16.16;76.04;97804.92;1768176;81;21457;-82
2021/08/11 04:17:49;;;;;;;8.85;5.62;;;;;;;16.16;76.34;97806.72;1787735;80;20973;-82
2021/08/11 04:20:16;;;;;;;6.80;5.30;;;;;;;16.18;75.95;97804.80;1768272;80;21023;-81
2021/08/11 04:22:42;;;;;;;7.78;5.35;;;;;;;16.18;76.10;97801.67;1786650;80;21464;-83
2021/08/11 04:25:09;;;;;;;7.85;4.65;;;;;;;16.19;75.84;97806.06;1787166;80;21060;-81
2021/08/11 04:27:35;;;;;;;7.00;5.35;;;;;;;16.21;75.75;97804.64;1787335;80;20966;-81
2021/08/11 04:30:01;;;;;;;8.40;5.37;;;;;;;16.25;75.63;97803.99;1788470;79;20951;-82
2021/08/11 04:32:27;;;;;;;9.15;5.30;;;;;;;16.28;75.30;97803.83;1749470;82;20992;-81
2021/08/11 04:34:54;;;;;;;9.40;5.40;;;;;;;16.30;75.69;97804.59;1711486;84;21005;-81
2021/08/11 04:37:20;;;;;;;10.18;5.37;;;;;;;16.34;75.61;97804.81;1732435;83;20980;-81
2021/08/11 04:39:46;;;;;;;6.42;5.78;;;;;;;16.40;75.07;97800.45;1749131;82;20996;-81
2021/08/11 04:42:12;;;;;;;9.20;5.50;;;;;;;16.45;75.11;97801.05;1711697;84;21052;-81
2021/08/11 04:44:38;;;;;;;7.78;5.58;;;;;;;16.49;75.34;97805.77;1732234;83;21091;-81
2021/08/11 04:47:05;;;;;;;11.28;5.80;;;;;;;16.53;75.31;97813.98;1752547;80;20976;-81
2021/08/11 04:49:31;;;;;;;7.72;6.15;;;;;;;16.54;75.54;97806.37;1737864;82;21000;-82
2021/08/11 04:51:57;;;;;;;5.87;5.10;;;;;;;16.60;75.04;97809.15;1742942;80;21067;-81
2021/08/11 04:54:23;;;;;;;6.70;5.50;;;;;;;16.63;75.44;97807.19;1795534;80;20952;-81
2021/08/11 04:56:49;;;;;;;12.15;5.35;;;;;;;16.68;75.36;97811.38;1773045;81;21027;-81
2021/08/11 04:59:16;;;;;;;7.45;5.55;;;;;;;16.72;75.35;97815.61;1795589;80;20952;-81
2021/08/11 05:01:42;;;;;;;7.50;5.30;;;;;;;16.77;74.79;97816.20;1795489;80;20979;-81
2021/08/11 05:04:08;;;;;;;8.05;5.70;;;;;;;16.86;75.00;97818.35;1772974;81;21000;-81
2021/08/11 05:06:34;;;;;;;15.63;9.75;;;;;;;16.95;74.35;97815.64;1795605;80;20967;-81
2021/08/11 05:09:01;;;;;;;9.80;5.15;;;;;;;17.05;74.54;97821.79;1772973;81;20968;-80
2021/08/11 05:11:27;;;;;;;10.50;5.00;;;;;;;17.14;74.20;97821.25;1795631;80;21460;-80
2021/08/11 05:13:54;;;;;;;8.68;4.40;;;;;;;17.24;74.07;97822.42;1795394;80;20943;-81
2021/08/11 05:16:20;;;;;;;8.95;4.75;;;;;;;17.36;74.00;97821.32;1772665;81;21047;-81
2021/08/11 05:18:46;;;;;;;6.15;4.80;;;;;;;17.45;72.67;97818.55;1795515;80;21350;-81
2021/08/11 05:21:13;;;;;;;10.63;5.08;;;;;;;17.54;73.20;97812.17;1794511;80;21039;-81
2021/08/11 05:23:39;;;;;;;6.60;4.53;;;;;;;17.62;72.73;97814.37;1798448;79;20968;-81
2021/08/11 05:26:05;;;;;;;8.33;4.42;;;;;;;17.70;72.83;97816.58;1804670;79;21402;-81
2021/08/11 05:28:31;;;;;;;6.60;5.10;;;;;;;17.78;72.44;97810.25;1804544;79;20952;-81
2021/08/11 05:30:57;;;;;;;8.93;4.87;;;;;;;17.86;72.68;97819.15;1804416;79;21000;-81
2021/08/11 05:33:24;;;;;;;9.00;5.40;;;;;;;17.95;72.41;97818.58;1804525;79;21451;-81
2021/08/11 05:35:50;;;;;;;7.10;4.92;;;;;;;18.05;72.24;97818.00;1804482;79;21004;-81
2021/08/11 05:38:16;;;;;;;15.55;8.98;;;;;;;18.14;72.04;97813.92;1804441;79;20972;-81
2021/08/11 05:40:42;;;;;;;11.22;7.58;;;;;;;18.20;71.38;97817.05;1804701;79;21015;-81
2021/08/11 05:43:08;;;;;;;8.18;4.97;;;;;;;18.30;71.43;97817.81;1777724;79;20996;-81
2021/08/11 05:45:35;;;;;;;9.98;5.17;;;;;;;18.38;71.23;97815.97;1795635;80;21006;-81
2021/08/11 05:48:01;;;;;;;13.22;5.03;;;;;;;18.46;71.05;97815.88;1781409;80;21048;-81
2021/08/11 05:50:27;;;;;;;9.73;5.42;;;;;;;18.54;70.47;97818.06;1803160;79;21016;-81
2021/08/11 05:52:53;;;;;;;11.25;4.97;;;;;;;18.63;70.40;97819.27;1806255;79;20972;-81
2021/08/11 05:55:20;;;;;;;8.98;4.70;;;;;;;18.73;70.19;97819.04;1806429;79;21393;-81
2021/08/11 05:57:46;;;;;;;10.15;5.00;;;;;;;18.82;70.01;97818.06;1775932;81;20984;-81
2021/08/11 06:00:13;;;;;;;11.12;5.42;;;;;;;18.92;69.78;97819.64;1776115;81;21508;-81
2021/08/11 06:02:40;;;;;;;10.70;4.92;;;;;;;19.00;69.41;97825.36;1776047;81;20960;-81
2021/08/11 06:05:14;;;;;;;18.45;11.30;;;;;;;19.10;69.70;97825.66;1775291;81;21019;-80
2021/08/11 06:07:41;;;;;;;9.88;4.72;;;;;;;19.21;69.19;97824.91;1776078;81;21020;-81
2021/08/11 06:10:08;;;;;;;10.28;5.60;;;;;;;19.30;69.22;97824.28;1776027;81;21031;-80
2021/08/11 06:12:35;;;;;;;9.70;5.03;;;;;;;19.38;68.37;97825.97;1775852;81;21404;-80
2021/08/11 06:15:02;;;;;;;9.73;4.83;;;;;;;19.49;67.79;97827.92;1776004;81;21000;-81
2021/08/11 06:17:28;;;;;;;10.13;4.95;;;;;;;19.58;68.33;97823.73;1775855;81;21009;-80
2021/08/11 06:19:55;;;;;;;6.62;4.53;;;;;;;19.67;67.46;97818.69;1775761;81;20987;-80
2021/08/11 06:22:22;;;;;;;11.38;4.78;;;;;;;19.76;68.02;97817.55;1776052;81;21401;-80
2021/08/11 06:24:49;;;;;;;6.92;5.00;;;;;;;19.87;67.47;97818.14;1776027;81;21441;-80
2021/08/11 06:27:15;;;;;;;14.83;8.00;;;;;;;19.97;67.47;97814.80;1775994;81;20987;-80
2021/08/11 06:29:42;;;;;;;20.00;13.22;;;;;;;20.07;66.96;97816.36;1776178;81;21018;-80
2021/08/11 06:32:08;;;;;;;8.98;4.60;;;;;;;20.20;66.70;97806.45;1776181;81;21024;-81
2021/08/11 06:34:35;;;;;;;10.50;6.05;;;;;;;20.33;66.04;97806.41;1776010;81;21018;-81
2021/08/11 06:37:01;;;;;;;19.23;5.37;;;;;;;20.47;66.41;97811.28;1775994;81;21070;-82
2021/08/11 06:39:28;;;;;;;6.70;4.30;;;;;;;20.58;66.26;97807.30;1776044;81;21464;-81
2021/08/11 06:41:54;;;;;;;6.22;4.53;;;;;;;20.67;65.07;97810.66;1776053;81;21421;-81
2021/08/11 06:44:23;;;;;;;8.25;4.72;;;;;;;20.80;65.59;97810.60;1754023;81;21009;-81
2021/08/11 06:46:50;;;;;;;11.22;5.00;;;;;;;20.92;65.66;97811.55;1746569;81;21012;-81
2021/08/11 06:49:18;;;;;;;7.78;4.22;;;;;;;21.03;65.10;97811.22;1767401;81;21484;-81
2021/08/11 06:51:44;;;;;;;9.43;4.65;;;;;;;21.14;64.80;97813.11;1782994;80;21375;-80
2021/08/11 06:54:12;;;;;;;11.68;4.92;;;;;;;21.22;63.32;97818.78;1767227;81;21005;-80
2021/08/11 06:56:40;;;;;;;7.62;4.65;;;;;;;21.33;63.12;97820.16;1783093;80;21003;-81
2021/08/11 06:59:06;;;;;;;6.55;4.05;;;;;;;21.44;63.11;97815.29;1767249;81;21003;-80
2021/08/11 07:01:33;;;;;;;10.40;4.75;;;;;;;21.58;63.09;97820.08;1783011;80;21395;-80
2021/08/11 07:04:00;;;;;;;7.35;4.25;;;;;;;21.72;62.00;97817.19;1767253;81;21441;-81
2021/08/11 07:06:26;;;;;;;7.25;4.65;;;;;;;21.87;62.18;97804.83;1783255;80;21075;-81
2021/08/11 07:08:53;;;;;;;9.48;4.53;;;;;;;22.03;60.99;97809.86;1767294;81;21050;-80
2021/08/11 07:11:20;;;;;;;10.70;5.08;;;;;;;22.14;60.76;97817.95;1783364;79;20956;-80
2021/08/11 07:13:46;;;;;;;7.35;4.33;;;;;;;22.25;61.04;97813.55;1732735;83;21025;-80
2021/08/11 07:16:13;;;;;;;8.13;4.05;;;;;;;22.37;60.00;97814.37;1784694;80;21022;-80
2021/08/11 07:18:39;;;;;;;5.37;4.03;;;;;;;22.48;60.10;97806.75;1784772;80;21405;-80
2021/08/11 07:21:06;;;;;;;12.90;4.55;;;;;;;22.59;59.11;97809.96;1784896;80;20967;-80
2021/08/11 07:23:32;;;;;;;9.93;4.12;;;;;;;22.69;58.65;97802.81;1784874;80;21000;-80
2021/08/11 07:25:58;;;;;;;7.92;4.45;;;;;;;22.81;58.33;97801.80;1784963;80;21421;-80
2021/08/11 07:28:25;;;;;;;8.63;4.03;;;;;;;22.94;58.68;97793.52;1785138;80;21043;-80
2021/08/11 07:30:51;;;;;;;6.53;4.12;;;;;;;23.06;58.50;97797.04;1784876;80;20961;-80
2021/08/11 07:33:17;;;;;;;5.85;4.20;;;;;;;23.17;59.08;97788.52;1784798;80;21493;-80
2021/08/11 07:35:44;;;;;;;8.55;4.22;;;;;;;23.27;58.46;97793.97;1784966;80;20980;-80
2021/08/11 07:38:10;;;;;;;7.03;4.15;;;;;;;23.34;58.85;97792.51;1784731;80;20968;-80
2021/08/11 07:40:38;;;;;;;7.20;4.45;;;;;;;23.45;58.47;97797.84;1784823;80;21441;-80
2021/08/11 07:43:06;;;;;;;9.90;4.10;;;;;;;23.53;58.91;97793.59;1784539;80;20948;-81
2021/08/11 07:45:34;;;;;;;7.33;3.70;;;;;;;23.63;58.80;97796.38;1784831;80;21038;-80
2021/08/11 07:48:01;;;;;;;9.40;4.10;;;;;;;23.70;57.65;97801.12;1780701;80;21075;-81
2021/08/11 07:50:31;;;;;;;5.00;4.12;;;;;;;23.80;57.97;97796.27;1801118;79;21038;-80
2021/08/11 07:52:58;;;;;;;7.10;3.98;;;;;;;23.88;58.08;97791.52;1776444;80;21475;-80
2021/08/11 07:55:25;;;;;;;6.30;3.92;;;;;;;23.93;57.89;97790.14;1801353;79;21373;-81
2021/08/11 07:57:51;;;;;;;5.17;3.75;;;;;;;24.02;57.76;97786.23;1776341;81;20994;-81
2021/08/11 08:00:23;;;;;;;7.42;4.37;;;;;;;24.09;55.88;97791.00;1801497;79;20994;-80
2021/08/11 08:02:48;;;;;;;5.47;4.12;;;;;;;24.18;57.04;97787.98;1800135;79;21011;-81
2021/08/11 08:05:15;;;;;;;5.83;4.00;;;;;;;24.25;56.19;97782.87;1776420;80;20999;-80
2021/08/11 08:07:42;;;;;;;5.97;4.00;;;;;;;24.34;55.20;97783.41;1801572;79;20939;-80
2021/08/11 08:10:11;;;;;;;6.85;3.75;;;;;;;24.45;55.96;97778.35;1776446;80;21022;-80
2021/08/11 08:12:39;;;;;;;7.40;3.92;;;;;;;24.52;55.78;97778.17;1804734;79;20968;-81
2021/08/11 08:15:07;;;;;;;5.00;3.85;;;;;;;24.63;54.74;97769.04;1806331;79;21034;-80
2021/08/11 08:17:33;;;;;;;5.62;3.70;;;;;;;24.63;54.74;97769.04;1806434;79;20992;-81
2021/08/11 08:20:01;;;;;;;5.40;3.80;;;;;;;24.73;55.31;97772.27;1775901;81;21031;-81
2021/08/11 08:22:27;;;;;;;4.33;3.62;;;;;;;24.79;55.25;97772.56;1776016;81;21027;-81
2021/08/11 08:24:56;;;;;;;7.62;3.75;;;;;;;24.85;54.41;97770.31;1775879;81;21476;-80
2021/08/11 08:27:24;;;;;;;5.28;3.60;;;;;;;24.94;54.73;97768.63;1775897;81;21027;-80
2021/08/11 08:29:51;;;;;;;5.15;4.20;;;;;;;25.02;53.66;97772.32;1775844;81;21516;-81
2021/08/11 08:32:19;;;;;;;4.58;3.30;;;;;;;25.10;51.99;97771.60;1775704;81;21157;-81
2021/08/11 08:34:46;;;;;;;6.03;3.47;;;;;;;25.17;53.37;97770.53;1775978;81;21055;-80
2021/08/11 08:37:13;;;;;;;6.70;3.35;;;;;;;25.23;53.82;97762.30;1775891;81;21464;-81
2021/08/11 08:39:39;;;;;;;5.75;3.87;;;;;;;25.28;52.90;97768.17;1775764;81;21097;-81
2021/08/11 08:42:05;;;;;;;4.03;3.20;;;;;;;25.35;52.52;97763.86;1775852;81;20985;-81
2021/08/11 08:44:35;;;;;;;5.37;3.52;;;;;;;25.45;51.47;97755.69;1775888;81;21035;-81
2021/08/11 08:47:03;;;;;;;4.47;3.50;;;;;;;25.53;51.56;97753.11;1775887;81;21016;-81
2021/08/11 08:49:29;;;;;;;4.12;3.40;;;;;;;25.59;51.51;97754.42;1807317;79;21038;-81
2021/08/11 08:51:56;;;;;;;4.20;3.70;;;;;;;25.67;51.40;97755.91;1808144;79;20968;-81
2021/08/11 08:54:25;;;;;;;4.67;3.30;;;;;;;25.72;50.24;97755.94;1808123;79;21039;-81
2021/08/11 08:56:52;;;;;;;4.85;3.33;;;;;;;25.75;48.97;97755.17;1808121;79;20983;-81
2021/08/11 08:59:18;;;;;;;4.78;3.12;;;;;;;25.84;48.24;97750.17;1808147;79;21027;-81
2021/08/11 09:01:45;;;;;;;5.22;3.15;;;;;;;25.94;48.52;97754.22;1808200;79;20971;-81
2021/08/11 09:04:11;;;;;;;3.80;3.27;;;;;;;26.04;49.34;97750.61;1808262;79;21000;-80
2021/08/11 09:06:38;;;;;;;8.43;3.42;;;;;;;26.14;49.39;97754.63;1808197;79;20991;-81
2021/08/11 09:09:09;;;;;;;4.75;3.40;;;;;;;26.21;46.41;97749.79;1808122;79;21011;-81
2021/08/11 09:11:39;;;;;;;3.92;3.12;;;;;;;26.29;47.49;97742.80;1805869;79;21069;-81
2021/08/11 09:14:23;;;;;;;4.95;3.25;;;;;;;26.37;47.39;97746.97;1807816;79;21464;-81
2021/08/11 09:16:54;;;;;;;4.75;3.45;;;;;;;26.45;47.95;97747.04;1808474;79;21007;-81
2021/08/11 09:19:22;;;;;;;5.15;3.08;;;;;;;26.53;47.87;97744.08;1807880;79;21472;-81
2021/08/11 09:22:08;;;;;;;4.35;3.65;;;;;;;26.56;45.51;97747.83;1808237;79;21492;-82
2021/08/11 09:24:38;;;;;;;4.85;3.15;;;;;;;26.62;44.56;97744.52;1808490;79;21010;-81
2021/08/11 09:27:21;;;;;;;4.03;2.77;;;;;;;26.71;45.93;97743.59;1808392;79;20983;-81
2021/08/11 09:30:20;;;;;;;4.05;2.70;;;;;;;26.74;45.60;97741.91;1808456;79;20983;-81
2021/08/11 09:33:04;;;;;;;4.72;3.30;;;;;;;26.82;43.95;97744.37;1808307;79;21420;-81
2021/08/11 09:35:34;;;;;;;6.28;3.33;;;;;;;26.93;44.69;97745.97;1808386;79;21372;-81
2021/08/11 09:38:11;;;;;;;3.42;2.65;;;;;;;26.99;45.21;97750.84;1808244;79;21039;-82
2021/08/11 09:40:40;;;;;;;7.10;3.47;;;;;;;27.03;43.62;97743.22;1800784;79;21436;-82
2021/08/11 09:43:15;;;;;;;4.65;3.20;;;;;;;27.11;43.56;97750.09;1776483;81;21006;-81
2021/08/11 09:45:52;;;;;;;5.22;3.08;;;;;;;27.22;44.95;97747.61;1776508;81;22212;-81
2021/08/11 09:48:22;;;;;;;5.60;3.30;;;;;;;27.34;45.34;97746.84;1770545;79;21095;-82
2021/08/11 09:51:01;;;;;;;4.08;2.87;;;;;;;27.47;44.49;97752.73;1772730;81;20942;-81
2021/08/11 09:53:37;;;;;;;4.78;2.98;;;;;;;27.52;44.13;97744.94;1772617;81;21494;-81
2021/08/11 09:56:09;;;;;;;4.55;3.40;;;;;;;27.57;43.47;97747.70;1772614;81;21060;-81
2021/08/11 09:58:46;;;;;;;4.05;2.90;;;;;;;27.59;43.08;97745.66;1772862;81;20997;-81
2021/08/11 10:01:19;;;;;;;5.17;3.05;;;;;;;27.58;42.30;97747.55;1772725;81;21033;-81
2021/08/11 10:04:02;;;;;;;3.65;3.00;;;;;;;27.60;42.20;97748.78;1772772;81;20993;-81
2021/08/11 10:06:36;;;;;;;;;;;;;;;27.64;42.77;97752.86;1775384;81;21064;-81
2021/08/11 10:09:25;;;;;;;6.12;2.95;;;;;;;27.74;41.84;97746.80;1772870;81;20179;-81
2021/08/11 10:11:56;;;;;;;4.67;3.33;;;;;;;27.85;42.30;97747.56;1763367;81;21481;-81
2021/08/11 10:14:27;;;;;;;4.33;2.60;;;;;;;27.93;42.04;97751.17;1760239;81;21027;-81
2021/08/11 10:16:56;;;;;;;4.53;2.47;;;;;;;28.01;40.82;97754.44;1741547;82;21043;-81
2021/08/11 10:19:26;;;;;;;3.22;2.55;;;;;;;28.07;38.40;97752.41;1760116;81;21042;-80
2021/08/11 10:22:13;;;;;;;5.05;2.72;;;;;;;28.11;38.77;97746.13;1749067;81;21040;-81
2021/08/11 10:24:40;;;;;;;5.47;2.92;;;;;;;28.20;39.07;97748.39;1733152;81;21005;-82
2021/08/11 10:27:09;;;;;;;3.33;3.00;;;;;;;28.29;39.27;97741.98;1762957;81;21003;-81
2021/08/11 10:29:39;;;;;;;6.78;3.00;;;;;;;28.36;37.54;97741.31;1758726;82;21005;-81
2021/08/11 10:32:09;;;;;;;4.60;3.12;;;;;;;28.36;37.05;97743.55;1773945;81;21005;-81
2021/08/11 10:34:38;;;;;;;2.98;2.65;;;;;;;28.48;37.62;97745.42;1763702;81;20984;-81
2021/08/11 10:37:05;;;;;;;2.98;2.60;;;;;;;28.52;37.96;97741.88;1759153;82;21388;-81
2021/08/11 10:39:34;;;;;;;3.87;3.20;;;;;;;28.51;37.71;97736.92;1774947;81;21030;-81
2021/08/11 10:42:13;;;;;;;3.55;2.65;;;;;;;28.63;38.99;97737.96;1772352;81;20978;-82
2021/08/11 10:44:40;;;;;;;4.33;2.77;;;;;;;28.78;38.93;97736.30;1773364;81;21498;-81
2021/08/11 10:47:09;;;;;;;3.27;2.92;;;;;;;29.07;36.36;97736.86;1762921;81;20963;-81
2021/08/11 10:49:57;;;;;;;4.15;2.87;;;;;;;29.80;34.74;97734.75;1787208;80;21409;-81
2021/08/11 10:52:26;;;;;;;3.85;2.80;;;;;;;30.95;34.82;97731.97;1795486;80;21048;-81
2021/08/11 10:55:01;;;;;;;3.22;2.77;;;;;;;32.27;33.10;97728.09;1795527;80;21003;-81
2021/08/11 10:57:42;;;;;;;3.22;2.60;;;;;;;33.29;32.92;97719.89;1795674;80;21442;-81
2021/08/11 11:00:25;;;;;;;5.58;2.80;;;;;;;34.33;30.97;97718.45;1795528;80;20988;-82
2021/08/11 11:02:52;;;;;;;3.95;2.77;;;;;;;35.14;29.25;97715.39;1794547;80;21461;-82
2021/08/11 11:05:27;;;;;;;3.92;2.65;;;;;;;36.10;28.81;97717.47;1795533;80;21433;-81
2021/08/11 11:08:15;;;;;;;2.80;2.60;;;;;;;36.75;24.31;97711.07;1791597;80;21012;-81
2021/08/11 11:10:44;;;;;;;3.20;2.83;;;;;;;36.41;24.09;97716.73;1784576;80;22111;-81
2021/08/11 11:13:29;;;;;;;3.05;2.75;;;;;;;36.59;24.67;97706.36;1791948;80;20976;-82
2021/08/11 11:16:01;;;;;;;3.35;2.65;;;;;;;37.07;24.66;97716.56;1764304;81;20960;-81
2021/08/11 11:18:28;;;;;;;3.85;2.95;;;;;;;36.52;22.53;97701.40;1792094;80;21458;-81
2021/08/11 11:21:03;;;;;;;2.70;2.50;;;;;;;36.98;23.45;97708.23;1764392;81;21051;-81
2021/08/11 11:23:44;;;;;;;4.03;3.10;;;;;;;37.56;23.95;97700.76;1792083;80;20956;-81
2021/08/11 11:26:12;;;;;;;3.42;3.05;;;;;;;38.27;24.91;97694.91;1763118;81;21040;-81
2021/08/11 11:29:09;;;;;;;4.40;2.80;;;;;;;38.95;23.48;97702.29;1792009;80;20995;-81
2021/08/11 11:31:48;;;;;;;4.17;3.20;;;;;;;39.03;22.21;97693.67;1764283;81;21024;-81
2021/08/11 11:34:35;;;;;;;12.88;3.37;;;;;;;39.30;22.03;97700.14;1792209;80;21322;-81
2021/08/11 11:37:07;;;;;;;3.12;2.80;;;;;;;39.64;22.08;97694.58;1764288;81;21012;-81
2021/08/11 11:39:46;;;;;;;3.27;2.98;;;;;;;39.89;20.58;97693.45;1792271;80;21003;-82
2021/08/11 11:42:22;;;;;;;5.05;3.08;;;;;;;39.76;20.77;97682.91;1741984;81;21095;-81
2021/08/11 11:45:02;;;;;;;3.70;3.10;;;;;;;40.35;20.73;97686.10;1794143;79;20971;-82